Time;durP1;ratioP1;P1;durP2;ratioP2;P2;SDS_P1;SDS_P2;PMS_P1;PMS_P2;Temp;Humidity;BMP_temperature;BMP_pressure;BME280_temperature;BME280_humidity;BME280_pressure;Samples;Min_cycle;Max_cycle;Signal;HPM_P1;HPM_P2
2023/05/29 00:00:13;;;;;;;;;;;;;;;16.17;21.08;101530.03;6159863;23;19995;-51
2023/05/29 00:02:39;;;;;;;;;;;;;;;16.15;20.76;101523.97;6185010;23;19919;-51
2023/05/29 00:05:05;;;;;;;;;;;;;;;16.12;20.92;101527.13;6185662;23;19955;-52
2023/05/29 00:07:34;;;;;;;;;;;;;;;16.11;20.82;101530.03;6186035;23;19908;-51
2023/05/29 00:09:59;;;;;;;;;;;;;;;16.12;20.79;101537.09;6185686;23;19908;-49
2023/05/29 00:12:25;;;;;;;;;;;;;;;16.03;21.27;101550.03;6185637;23;19919;-49
2023/05/29 00:14:50;;;;;;;;;;;;;;;16.03;20.81;101550.84;6185429;23;19916;-49
2023/05/29 00:17:15;;;;;;;;;;;;;;;16.01;20.92;101552.06;6185060;23;20014;-52
2023/05/29 00:19:44;;;;;;;;;;;;;;;15.94;21.31;101545.81;6185200;23;20290;-53
2023/05/29 00:22:10;;;;;;;;;;;;;;;15.84;21.14;101538.06;6184877;23;19939;-51
2023/05/29 00:24:35;;;;;;;;;;;;;;;15.92;20.78;101542.47;6184942;23;19941;-48
2023/05/29 00:27:01;;;;;;;;;;;;;;;15.86;21.10;101542.25;6185241;23;19908;-54
2023/05/29 00:29:27;;;;;;;;;;;;;;;15.83;21.27;101550.75;6185232;23;20230;-47
2023/05/29 00:31:53;;;;;;;;;;;;;;;15.84;21.01;101565.13;6158976;23;19942;-51
2023/05/29 00:34:18;;;;;;;;;;;;;;;15.83;21.20;101564.31;6185469;23;19912;-51
2023/05/29 00:36:44;;;;;;;;;;;;;;;15.81;21.17;101568.28;6185153;23;19996;-52
2023/05/29 00:39:10;;;;;;;;;;;;;;;15.80;21.04;101563.88;6185459;23;19915;-52
2023/05/29 00:41:35;;;;;;;;;;;;;;;15.59;21.37;101565.63;6184680;23;19908;-53
2023/05/29 00:44:01;;;;;;;;;;;;;;;15.60;21.20;101569.16;6185396;23;19912;-53
2023/05/29 00:46:26;;;;;;;;;;;;;;;15.57;21.21;101580.41;6185038;23;19987;-53
2023/05/29 00:48:52;;;;;;;;;;;;;;;15.68;20.89;101571.72;6185260;23;19916;-49
2023/05/29 00:51:18;;;;;;;;;;;;;;;15.68;20.94;101575.25;6185400;23;19923;-50
2023/05/29 00:53:44;;;;;;;;;;;;;;;15.63;21.04;101572.28;6185129;23;20203;-50
2023/05/29 00:56:09;;;;;;;;;;;;;;;15.56;20.96;101579.53;6185437;23;19915;-50
2023/05/29 00:58:35;;;;;;;;;;;;;;;15.52;21.04;101574.75;6185112;23;19912;-47
2023/05/29 01:01:01;;;;;;;;;;;;;;;15.49;21.10;101573.28;6184547;23;19909;-51
2023/05/29 01:03:28;;;;;;;;;;;;;;;15.49;21.52;101578.69;6185073;23;19915;-49
2023/05/29 01:05:53;;;;;;;;;;;;;;;15.42;21.42;101577.81;6185169;23;19943;-52
2023/05/29 01:08:20;;;;;;;;;;;;;;;15.43;21.33;101590.28;6184741;23;19909;-52
2023/05/29 01:10:45;;;;;;;;;;;;;;;15.40;21.25;101590.72;6184620;23;19908;-49
2023/05/29 01:13:23;;;;;;;;;;;;;;;15.38;21.15;101573.81;6184771;23;19914;-50
2023/05/29 01:15:54;;;;;;;;;;;;;;;15.40;21.14;101571.75;6184771;23;20003;-49
2023/05/29 01:18:26;;;;;;;;;;;;;;;15.43;21.08;101574.91;6184538;23;19948;-50
2023/05/29 01:21:00;;;;;;;;;;;;;;;15.38;21.55;101592.75;6185222;23;19916;-53
2023/05/29 01:23:41;;;;;;;;;;;;;;;15.39;20.89;101610.69;6184835;23;20349;-49
2023/05/29 01:26:15;;;;;;;;;;;;;;;15.32;21.27;101609.78;6184988;23;19908;-50
2023/05/29 01:28:44;;;;;;;;;;;;;;;15.27;21.43;101607.69;6185283;23;19908;-49
2023/05/29 01:31:12;;;;;;;;;;;;;;;15.25;21.23;101594.34;6184936;23;19919;-50
2023/05/29 01:33:40;;;;;;;;;;;;;;;15.24;21.42;101587.25;6184922;23;19912;-52
2023/05/29 01:36:10;;;;;;;;;;;;;;;15.27;21.45;101586.03;6184745;23;19916;-51
2023/05/29 01:38:36;;;;;;;;;;;;;;;15.22;21.73;101589.31;6184910;23;19908;-51
2023/05/29 01:41:01;;;;;;;;;;;;;;;15.17;21.38;101590.94;6185345;23;19916;-49
2023/05/29 01:43:27;;;;;;;;;;;;;;;15.11;21.65;101595.28;6185257;23;19963;-51
2023/05/29 01:45:53;;;;;;;;;;;;;;;15.16;21.28;101597.41;6184945;23;20365;-49
2023/05/29 01:48:18;;;;;;;;;;;;;;;15.20;21.68;101595.97;6184975;23;19912;-51
2023/05/29 01:50:44;;;;;;;;;;;;;;;15.19;21.48;101594.28;6185187;23;19938;-53
2023/05/29 01:53:10;;;;;;;;;;;;;;;15.10;21.71;101602.56;6186603;23;19958;-50
2023/05/29 01:55:35;;;;;;;;;;;;;;;15.11;21.40;101608.78;6187282;23;19944;-48
2023/05/29 01:58:01;;;;;;;;;;;;;;;15.12;21.47;101609.63;6187098;23;19915;-49
2023/05/29 02:00:26;;;;;;;;;;;;;;;15.10;21.70;101599.84;6187036;23;19916;-47
2023/05/29 02:02:52;;;;;;;;;;;;;;;15.20;21.79;101598.69;6186424;23;19908;-51
2023/05/29 02:05:17;;;;;;;;;;;;;;;15.10;21.40;101604.44;6187373;23;19912;-52
2023/05/29 02:07:42;;;;;;;;;;;;;;;15.06;21.89;101605.84;6186962;23;19909;-49
2023/05/29 02:10:08;;;;;;;;;;;;;;;15.05;22.20;101598.75;6186824;23;19923;-47
2023/05/29 02:12:33;;;;;;;;;;;;;;;15.07;22.69;101604.81;6160445;23;19956;-54
2023/05/29 02:14:58;;;;;;;;;;;;;;;15.08;22.00;101595.66;6160402;23;19924;-50
2023/05/29 02:17:24;;;;;;;;;;;;;;;15.12;21.98;101599.66;6186981;23;19987;-51
2023/05/29 02:19:50;;;;;;;;;;;;;;;15.09;22.46;101610.88;6187173;23;19908;-52
2023/05/29 02:22:17;;;;;;;;;;;;;;;15.08;23.03;101615.44;6186928;23;19978;-50
2023/05/29 02:24:42;;;;;;;;;;;;;;;15.03;22.58;101609.78;6186339;23;19909;-48
2023/05/29 02:27:07;;;;;;;;;;;;;;;15.17;22.71;101613.41;6186279;23;20326;-48
2023/05/29 02:29:33;;;;;;;;;;;;;;;15.09;23.04;101617.09;6186218;23;19958;-51
2023/05/29 02:31:58;;;;;;;;;;;;;;;15.16;22.25;101625.28;6186751;23;19970;-51
2023/05/29 02:34:24;;;;;;;;;;;;;;;15.14;22.75;101630.06;6186148;23;19909;-48
2023/05/29 02:36:49;;;;;;;;;;;;;;;15.14;22.86;101629.22;6185898;23;20299;-50
2023/05/29 02:39:15;;;;;;;;;;;;;;;15.10;22.61;101626.09;6186738;23;19961;-50
2023/05/29 02:41:40;;;;;;;;;;;;;;;15.08;23.24;101617.28;6186510;23;19955;-48
2023/05/29 02:44:05;;;;;;;;;;;;;;;15.08;22.70;101611.88;6186664;23;19912;-50
2023/05/29 02:46:31;;;;;;;;;;;;;;;15.11;22.90;101603.38;6186154;23;19978;-50
2023/05/29 02:48:56;;;;;;;;;;;;;;;15.11;23.05;101614.22;6186107;23;19908;-48
2023/05/29 02:51:21;;;;;;;;;;;;;;;15.12;23.00;101612.34;6187009;23;19913;-52
2023/05/29 02:53:48;;;;;;;;;;;;;;;15.13;22.54;101612.16;6159897;23;20242;-50
2023/05/29 02:56:15;;;;;;;;;;;;;;;15.12;22.84;101615.91;6185870;23;19908;-48
2023/05/29 02:58:40;;;;;;;;;;;;;;;15.10;22.52;101612.56;6189497;23;19914;-47
2023/05/29 03:01:06;;;;;;;;;;;;;;;15.12;22.75;101604.22;6185101;23;20349;-48
2023/05/29 03:03:31;;;;;;;;;;;;;;;15.09;23.24;101613.56;6184794;23;19908;-46
2023/05/29 03:05:56;;;;;;;;;;;;;;;15.08;22.67;101614.59;6185786;23;19954;-46
2023/05/29 03:08:21;;;;;;;;;;;;;;;15.09;23.18;101619.81;6185972;23;19908;-48
2023/05/29 03:10:47;;;;;;;;;;;;;;;15.03;23.63;101620.59;6185562;23;20089;-51
2023/05/29 03:13:12;;;;;;;;;;;;;;;14.98;23.98;101612.22;6185846;23;19908;-47
2023/05/29 03:15:37;;;;;;;;;;;;;;;15.03;23.49;101617.06;6185771;23;19922;-46
2023/05/29 03:18:03;;;;;;;;;;;;;;;15.00;23.52;101629.09;6185713;23;19920;-49
2023/05/29 03:20:28;;;;;;;;;;;;;;;15.10;22.98;101620.66;6185729;23;19908;-47
2023/05/29 03:22:53;;;;;;;;;;;;;;;15.03;23.55;101625.19;6185583;23;19908;-49
2023/05/29 03:25:20;;;;;;;;;;;;;;;15.00;23.22;101623.69;6185667;23;20035;-48
2023/05/29 03:27:45;;;;;;;;;;;;;;;15.03;23.85;101627.88;6185679;23;19908;-49
2023/05/29 03:30:11;;;;;;;;;;;;;;;15.00;23.44;101628.25;6185541;23;20344;-49
2023/05/29 03:32:36;;;;;;;;;;;;;;;14.97;23.58;101624.09;6185660;23;19939;-52
2023/05/29 03:35:03;;;;;;;;;;;;;;;14.96;23.69;101618.88;6159062;23;20348;-48
2023/05/29 03:37:29;;;;;;;;;;;;;;;14.98;23.72;101627.63;6185298;23;19939;-50
2023/05/29 03:39:54;;;;;;;;;;;;;;;15.00;23.69;101612.03;6186163;23;20195;-48
2023/05/29 03:42:21;;;;;;;;;;;;;;;14.98;23.41;101617.63;6185749;23;20031;-47
2023/05/29 03:44:46;;;;;;;;;;;;;;;14.99;23.78;101632.00;6185872;23;19959;-46
2023/05/29 03:47:12;;;;;;;;;;;;;;;15.00;23.13;101628.25;6185599;23;19995;-48
2023/05/29 03:49:37;;;;;;;;;;;;;;;15.00;23.58;101620.97;6185717;23;19949;-47
2023/05/29 03:52:03;;;;;;;;;;;;;;;14.96;24.91;101622.41;6185537;23;20020;-49
2023/05/29 03:54:28;;;;;;;;;;;;;;;14.98;24.09;101627.63;6185161;23;19912;-47
2023/05/29 03:56:53;;;;;;;;;;;;;;;15.07;23.40;101632.69;6185162;23;19935;-48
2023/05/29 03:59:19;;;;;;;;;;;;;;;15.10;24.07;101629.63;6185381;23;19966;-47
2023/05/29 04:01:44;;;;;;;;;;;;;;;15.08;23.54;101623.56;6184302;23;19916;-50
2023/05/29 04:04:10;;;;;;;;;;;;;;;15.09;23.43;101619.81;6185268;23;19994;-46
2023/05/29 04:06:38;;;;;;;;;;;;;;;15.06;24.05;101616.66;6185180;23;19966;-50
2023/05/29 04:09:04;;;;;;;;;;;;;;;15.01;24.90;101616.44;6185208;23;19912;-47
2023/05/29 04:11:29;;;;;;;;;;;;;;;15.09;24.28;101621.69;6185106;23;19913;-50
2023/05/29 04:13:55;;;;;;;;;;;;;;;15.11;23.99;101630.44;6185071;23;19987;-51
2023/05/29 04:16:20;;;;;;;;;;;;;;;15.12;23.74;101628.56;6185027;23;19908;-48
2023/05/29 04:18:45;;;;;;;;;;;;;;;15.10;24.40;101632.31;6185335;23;19908;-48
2023/05/29 04:21:11;;;;;;;;;;;;;;;15.10;23.97;101637.72;6184937;23;19909;-50
2023/05/29 04:23:36;;;;;;;;;;;;;;;15.06;24.86;101643.72;6185044;23;19982;-48
2023/05/29 04:26:01;;;;;;;;;;;;;;;15.06;23.98;101644.56;6184942;23;19908;-50
2023/05/29 04:28:27;;;;;;;;;;;;;;;15.12;24.11;101640.25;6185066;23;19912;-48
2023/05/29 04:30:52;;;;;;;;;;;;;;;15.21;23.61;101649.91;6185302;23;19931;-47
2023/05/29 04:33:18;;;;;;;;;;;;;;;15.20;23.75;101659.03;6184943;23;20406;-52
2023/05/29 04:35:43;;;;;;;;;;;;;;;15.22;23.89;101658.84;6184486;23;19904;-48
2023/05/29 04:38:09;;;;;;;;;;;;;;;15.24;23.88;101657.59;6184965;23;19909;-52
2023/05/29 04:40:36;;;;;;;;;;;;;;;15.23;24.10;101655.97;6184814;23;19908;-50
2023/05/29 04:43:02;;;;;;;;;;;;;;;15.26;23.60;101654.72;6184794;23;19951;-53
2023/05/29 04:45:27;;;;;;;;;;;;;;;15.31;23.44;101646.03;6184845;23;19909;-48
2023/05/29 04:47:54;;;;;;;;;;;;;;;15.32;23.58;101659.34;6184861;23;19983;-52
2023/05/29 04:50:20;;;;;;;;;;;;;;;15.34;23.50;101664.56;6185269;23;19908;-49
2023/05/29 04:52:46;;;;;;;;;;;;;;;15.36;23.46;101663.34;6185441;23;19912;-48
2023/05/29 04:55:11;;;;;;;;;;;;;;;15.40;23.64;101655.69;6185432;23;19909;-53
2023/05/29 04:57:36;;;;;;;;;;;;;;;15.42;23.33;101667.16;6185572;23;19909;-49
2023/05/29 05:00:06;;;;;;;;;;;;;;;15.42;23.33;101665.25;6185003;23;19908;-47
2023/05/29 05:02:32;;;;;;;;;;;;;;;15.49;23.33;101673.44;6184192;23;19909;-47
2023/05/29 05:04:57;;;;;;;;;;;;;;;15.51;23.54;101674.09;6185227;23;19946;-50
2023/05/29 05:07:22;;;;;;;;;;;;;;;15.58;23.65;101676.81;6185024;23;20509;-52
2023/05/29 05:09:47;;;;;;;;;;;;;;;15.52;24.03;101683.88;6184779;23;19912;-48
2023/05/29 05:12:13;;;;;;;;;;;;;;;15.64;23.50;101676.88;6185017;23;19922;-52
2023/05/29 05:14:38;;;;;;;;;;;;;;;15.75;23.20;101670.13;6184967;23;19908;-51
2023/05/29 05:17:03;;;;;;;;;;;;;;;15.72;23.86;101672.34;6184991;23;20438;-52
2023/05/29 05:19:29;;;;;;;;;;;;;;;15.91;23.38;101668.94;6185351;23;19962;-48
2023/05/29 05:21:54;;;;;;;;;;;;;;;15.96;23.39;101679.22;6184913;23;20329;-51
2023/05/29 05:24:19;;;;;;;;;;;;;;;16.07;23.44;101673.22;6185836;23;19959;-51
2023/05/29 05:26:45;;;;;;;;;;;;;;;16.08;23.50;101674.88;6184861;23;19908;-52
2023/05/29 05:29:11;;;;;;;;;;;;;;;16.18;22.92;101674.53;6185303;23;19908;-50
2023/05/29 05:31:36;;;;;;;;;;;;;;;16.30;22.90;101680.22;6184901;23;20243;-48
2023/05/29 05:34:01;;;;;;;;;;;;;;;16.37;23.06;101671.06;6185254;23;19916;-51
2023/05/29 05:36:27;;;;;;;;;;;;;;;16.45;22.75;101670.91;6184582;23;19963;-49
2023/05/29 05:38:52;;;;;;;;;;;;;;;16.50;22.58;101666.75;6184958;23;19908;-48
2023/05/29 05:41:17;;;;;;;;;;;;;;;16.51;22.62;101663.84;6185010;23;20252;-53
2023/05/29 05:43:43;;;;;;;;;;;;;;;16.56;22.60;101661.31;6185366;23;19959;-51
2023/05/29 05:46:08;;;;;;;;;;;;;;;16.50;22.79;101655.91;6158335;23;19908;-50
2023/05/29 05:48:33;;;;;;;;;;;;;;;16.41;22.53;101656.06;6158192;23;20299;-47
2023/05/29 05:50:58;;;;;;;;;;;;;;;16.42;22.33;101648.78;6184844;23;19916;-49
2023/05/29 05:53:24;;;;;;;;;;;;;;;16.49;22.56;101646.91;6185172;23;20222;-47
2023/05/29 05:55:49;;;;;;;;;;;;;;;16.52;22.55;101651.09;6184870;23;19979;-50
2023/05/29 05:58:15;;;;;;;;;;;;;;;16.58;22.38;101644.84;6184950;23;19908;-49
2023/05/29 06:00:40;;;;;;;;;;;;;;;16.58;22.46;101648.38;6184579;23;20241;-49
2023/05/29 06:03:05;;;;;;;;;;;;;;;16.65;22.33;101646.53;6183928;23;20285;-49
2023/05/29 06:05:31;;;;;;;;;;;;;;;16.68;22.29;101650.72;6184640;23;19914;-53
2023/05/29 06:07:58;;;;;;;;;;;;;;;16.71;22.15;101652.19;6184649;23;19919;-54
2023/05/29 06:10:23;;;;;;;;;;;;;;;16.65;22.00;101654.66;6184081;23;19970;-49
2023/05/29 06:12:49;;;;;;;;;;;;;;;16.74;22.02;101655.31;6184548;23;19951;-46
2023/05/29 06:15:14;;;;;;;;;;;;;;;16.74;21.97;101655.31;6184717;23;19909;-47
2023/05/29 06:17:40;;;;;;;;;;;;;;;16.79;22.52;101660.13;6184855;23;19908;-47
2023/05/29 06:20:14;;;;;;;;;;;;;;;16.71;23.15;101658.44;6184914;23;19912;-47
2023/05/29 06:22:40;;;;;;;;;;;;;;;16.73;23.54;101658.25;6185127;23;19912;-47
2023/05/29 06:25:06;;;;;;;;;;;;;;;16.74;23.33;101651.78;6184844;23;20183;-47
2023/05/29 06:27:31;;;;;;;;;;;;;;;16.78;23.22;101662.00;6184755;23;19916;-47
2023/05/29 06:29:56;;;;;;;;;;;;;;;17.01;22.80;101653.53;6184546;23;19948;-48
2023/05/29 06:32:22;;;;;;;;;;;;;;;17.06;23.00;101652.91;6184538;23;20255;-47
2023/05/29 06:34:47;;;;;;;;;;;;;;;17.07;23.24;101651.00;6184622;23;19943;-48
2023/05/29 06:37:12;;;;;;;;;;;;;;;16.97;23.40;101646.00;6184446;23;19916;-47
2023/05/29 06:39:41;;;;;;;;;;;;;;;17.08;22.90;101648.09;6186326;23;19919;-49
2023/05/29 06:42:07;;;;;;;;;;;;;;;17.20;22.85;101645.63;6186624;23;19986;-49
2023/05/29 06:44:32;;;;;;;;;;;;;;;17.31;22.46;101641.41;6186485;23;19942;-47
2023/05/29 06:46:57;;;;;;;;;;;;;;;17.34;22.48;101641.84;6186321;23;19978;-48
2023/05/29 06:49:22;;;;;;;;;;;;;;;17.44;22.72;101635.13;6186438;23;19962;-48
2023/05/29 06:51:48;;;;;;;;;;;;;;;17.44;22.39;101648.72;6159738;23;19954;-48
2023/05/29 06:54:13;;;;;;;;;;;;;;;17.44;22.06;101654.16;6185970;23;19908;-48
2023/05/29 06:56:39;;;;;;;;;;;;;;;17.65;22.05;101650.38;6186485;23;20003;-47
2023/05/29 06:59:05;;;;;;;;;;;;;;;17.59;22.09;101650.19;6186502;23;19912;-52
2023/05/29 07:01:30;;;;;;;;;;;;;;;17.60;22.11;101638.25;6185440;23;19943;-51
2023/05/29 07:03:56;;;;;;;;;;;;;;;17.83;21.56;101639.69;6186122;23;19908;-51
2023/05/29 07:06:21;;;;;;;;;;;;;;;17.95;21.08;101639.88;6186329;23;19990;-51
2023/05/29 07:08:46;;;;;;;;;;;;;;;17.88;21.79;101642.59;6186156;23;19908;-50
2023/05/29 07:11:12;;;;;;;;;;;;;;;18.07;21.38;101646.34;6186400;23;19917;-48
2023/05/29 07:13:37;;;;;;;;;;;;;;;18.13;20.62;101639.22;6186423;23;19916;-51
2023/05/29 07:16:02;;;;;;;;;;;;;;;18.19;20.60;101650.03;6186075;23;19995;-53
2023/05/29 07:18:28;;;;;;;;;;;;;;;18.23;19.80;101641.47;6186143;23;19983;-47
2023/05/29 07:20:55;;;;;;;;;;;;;;;18.36;20.36;101638.69;6186098;23;19915;-47
2023/05/29 07:23:20;;;;;;;;;;;;;;;18.38;19.98;101633.84;6185608;23;19917;-49
2023/05/29 07:25:46;;;;;;;;;;;;;;;18.30;20.85;101631.41;6186135;23;19923;-47
2023/05/29 07:28:11;;;;;;;;;;;;;;;18.39;20.37;101638.25;6186411;23;20310;-49
2023/05/29 07:30:36;;;;;;;;;;;;;;;18.43;20.52;101634.03;6186142;23;19936;-49
2023/05/29 07:33:02;;;;;;;;;;;;;;;18.68;20.79;101625.09;6186140;23;20225;-49
2023/05/29 07:35:27;;;;;;;;;;;;;;;18.88;20.21;101623.09;6185784;23;19919;-50
2023/05/29 07:37:53;;;;;;;;;;;;;;;19.04;19.86;101620.91;6185853;23;19931;-53
2023/05/29 07:40:19;;;;;;;;;;;;;;;19.09;19.70;101615.63;6186013;23;19995;-50
2023/05/29 07:42:44;;;;;;;;;;;;;;;19.22;19.48;101617.41;6185837;23;19963;-52
2023/05/29 07:45:11;;;;;;;;;;;;;;;19.23;19.56;101624.53;6186059;23;19980;-52
2023/05/29 07:47:36;;;;;;;;;;;;;;;19.35;19.27;101625.44;6185267;23;19908;-53
2023/05/29 07:50:01;;;;;;;;;;;;;;;19.21;19.18;101619.28;6184713;23;19940;-50
2023/05/29 07:52:27;;;;;;;;;;;;;;;19.50;18.71;101614.19;6185301;23;20023;-53
2023/05/29 07:54:52;;;;;;;;;;;;;;;19.39;19.16;101615.78;6184968;23;20337;-50
2023/05/29 07:57:18;;;;;;;;;;;;;;;19.25;18.96;101614.25;6184931;23;19991;-48
2023/05/29 07:59:43;;;;;;;;;;;;;;;19.45;18.86;101624.97;6158876;23;19914;-50
2023/05/29 08:02:09;;;;;;;;;;;;;;;19.53;18.59;101621.94;6184098;23;19939;-52
2023/05/29 08:04:35;;;;;;;;;;;;;;;19.56;18.62;101623.38;6185411;23;19994;-49
2023/05/29 08:07:03;;;;;;;;;;;;;;;19.59;18.32;101617.47;6159698;23;19951;-50
2023/05/29 08:09:28;;;;;;;;;;;;;;;19.63;18.02;101616.81;6185536;23;20373;-49
2023/05/29 08:11:54;;;;;;;;;;;;;;;19.65;17.99;101614.69;6185352;23;19946;-53
2023/05/29 08:14:19;;;;;;;;;;;;;;;19.81;18.39;101596.91;6185915;23;19954;-49
2023/05/29 08:16:44;;;;;;;;;;;;;;;19.82;18.08;101600.50;6185609;23;20299;-49
2023/05/29 08:19:10;;;;;;;;;;;;;;;19.81;18.21;101605.09;6185533;23;20291;-53
2023/05/29 08:21:35;;;;;;;;;;;;;;;19.65;18.38;101605.66;6185792;23;19915;-49
2023/05/29 08:24:01;;;;;;;;;;;;;;;19.63;18.32;101599.59;6185735;23;19913;-51
2023/05/29 08:26:27;;;;;;;;;;;;;;;19.56;18.19;101605.16;6185839;23;19908;-51
2023/05/29 08:28:52;;;;;;;;;;;;;;;19.69;18.21;101601.44;6185643;23;19988;-52
2023/05/29 08:31:17;;;;;;;;;;;;;;;19.76;18.21;101595.94;6185472;23;19916;-47
2023/05/29 08:33:43;;;;;;;;;;;;;;;19.69;18.27;101598.72;6185334;23;19939;-46
2023/05/29 08:36:08;;;;;;;;;;;;;;;19.85;18.44;101595.41;6185253;23;19921;-53
2023/05/29 08:38:34;;;;;;;;;;;;;;;19.97;18.39;101589.22;6185413;23;19908;-52
2023/05/29 08:40:59;;;;;;;;;;;;;;;20.00;18.23;101594.19;6185275;23;20210;-49
2023/05/29 08:43:26;;;;;;;;;;;;;;;20.07;18.17;101598.47;6185831;23;19915;-49
2023/05/29 08:45:54;;;;;;;;;;;;;;;19.89;18.26;101596.63;6185971;23;19947;-52
2023/05/29 08:48:26;;;;;;;;;;;;;;;19.95;18.29;101597.59;6158491;23;19908;-52
2023/05/29 08:50:52;;;;;;;;;;;;;;;20.04;18.13;101592.66;6184944;23;20006;-55
2023/05/29 08:53:21;;;;;;;;;;;;;;;20.08;18.11;101597.44;6185210;23;19912;-48
2023/05/29 08:55:47;;;;;;;;;;;;;;;20.28;18.04;101586.28;6185342;23;20322;-47
2023/05/29 08:58:13;;;;;;;;;;;;;;;20.46;18.08;101599.00;6185287;23;19908;-47
2023/05/29 09:00:38;;;;;;;;;;;;;;;20.43;17.51;101598.63;6185035;23;19990;-52
2023/05/29 09:03:04;;;;;;;;;;;;;;;20.65;17.68;101588.91;6184715;23;20314;-52
2023/05/29 09:05:29;;;;;;;;;;;;;;;20.73;17.53;101585.03;6185267;23;19931;-49
2023/05/29 09:07:55;;;;;;;;;;;;;;;20.77;17.28;101580.75;6185229;23;19995;-50
2023/05/29 09:10:22;;;;;;;;;;;;;;;20.99;17.54;101575.56;6185383;23;19962;-50
2023/05/29 09:12:49;;;;;;;;;;;;;;;21.16;17.20;101564.75;6185387;23;20286;-52
2023/05/29 09:15:19;;;;;;;;;;;;;;;21.26;17.09;101580.56;6185279;23;20356;-51
2023/05/29 09:17:48;;;;;;;;;;;;;;;21.41;17.21;101570.00;6185219;23;20318;-48
2023/05/29 09:20:17;;;;;;;;;;;;;;;21.74;16.99;101560.31;6158495;23;19991;-50
2023/05/29 09:22:51;;;;;;;;;;;;;;;21.84;16.85;101573.38;6185367;23;19982;-54
2023/05/29 09:25:21;;;;;;;;;;;;;;;21.58;16.66;101567.38;6185157;23;19943;-46
2023/05/29 09:27:46;;;;;;;;;;;;;;;21.58;16.29;101561.06;6185374;23;19915;-48
2023/05/29 09:30:30;;;;;;;;;;;;;;;21.61;16.00;101563.31;6184826;23;20434;-50
2023/05/29 09:32:55;;;;;;;;;;;;;;;21.72;16.67;101558.91;6184945;23;19912;-47
2023/05/29 09:35:22;;;;;;;;;;;;;;;21.98;16.35;101557.53;6185052;23;19909;-50
2023/05/29 09:37:50;;;;;;;;;;;;;;;21.99;16.37;101557.28;6184701;23;19947;-47
2023/05/29 09:40:15;;;;;;;;;;;;;;;22.04;16.64;101548.34;6185215;23;20117;-48
2023/05/29 09:42:40;;;;;;;;;;;;;;;22.30;16.10;101555.16;6185190;23;19908;-48
2023/05/29 09:45:06;;;;;;;;;;;;;;;22.58;15.96;101534.28;6185124;23;19943;-48
2023/05/29 09:47:35;;;;;;;;;;;;;;;22.67;15.49;101535.53;6158543;23;19955;-49
2023/05/29 09:50:01;;;;;;;;;;;;;;;22.88;15.11;101539.47;6184415;23;19909;-54
2023/05/29 09:52:30;;;;;;;;;;;;;;;23.12;14.65;101540.13;6184819;23;20215;-49
2023/05/29 09:54:56;;;;;;;;;;;;;;;23.25;14.57;101536.19;6184857;23;19943;-50
2023/05/29 09:57:23;;;;;;;;;;;;;;;23.13;14.60;101533.56;6184821;23;20310;-49
2023/05/29 09:59:51;;;;;;;;;;;;;;;23.46;15.41;101525.50;6185004;23;19998;-48
2023/05/29 10:02:17;;;;;;;;;;;;;;;23.66;15.37;101520.28;6183908;23;19908;-52
2023/05/29 10:04:44;;;;;;;;;;;;;;;24.05;14.95;101511.13;6184756;23;19908;-49
2023/05/29 10:07:42;;;;;;;;;;;;;;;24.24;15.00;101506.97;6185036;23;19963;-45
2023/05/29 10:10:09;;;;;;;;;;;;;;;24.49;14.42;101517.31;6103758;23;19928;-51
2023/05/29 10:12:38;;;;;;;;;;;;;;;24.58;14.91;101514.16;6184774;23;19916;-54
2023/05/29 10:15:06;;;;;;;;;;;;;;;24.93;14.86;101511.66;6186642;23;19908;-50
2023/05/29 10:17:33;;;;;;;;;;;;;;;24.57;14.03;101523.47;6186528;23;19987;-51
2023/05/29 10:20:00;;;;;;;;;;;;;;;24.48;13.93;101515.69;6160095;23;20343;-49
2023/05/29 10:22:27;;;;;;;;;;;;;;;24.68;14.20;101517.81;6186657;23;20303;-49
2023/05/29 10:24:53;;;;;;;;;;;;;;;24.97;14.63;101500.16;6186490;23;19915;-51
2023/05/29 10:27:18;;;;;;;;;;;;;;;24.50;14.16;101502.53;6186528;23;19991;-51
2023/05/29 10:29:56;;;;;;;;;;;;;;;25.07;14.41;101489.19;6186713;23;19962;-50
2023/05/29 10:32:27;;;;;;;;;;;;;;;25.25;14.37;101480.53;6186676;23;20253;-49
2023/05/29 10:35:04;;;;;;;;;;;;;;;25.71;13.82;101482.66;6187326;23;19931;-48
2023/05/29 10:37:39;;;;;;;;;;;;;;;25.23;13.75;101484.63;6185916;23;19966;-47
2023/05/29 10:40:17;;;;;;;;;;;;;;;24.98;13.73;101496.28;6186032;23;19916;-46
2023/05/29 10:42:52;;;;;;;;;;;;;;;25.00;14.46;101485.84;6186592;23;20262;-49
2023/05/29 10:45:32;;;;;;;;;;;;;;;25.14;14.29;101486.22;6186664;23;19960;-48
2023/05/29 10:48:06;;;;;;;;;;;;;;;25.24;14.28;101487.13;6186383;23;20039;-48
2023/05/29 10:50:38;;;;;;;;;;;;;;;25.30;14.60;101488.81;6186034;23;19908;-51
2023/05/29 10:53:06;;;;;;;;;;;;;;;25.83;14.39;101485.16;6186036;23;19919;-48
2023/05/29 10:55:35;;;;;;;;;;;;;;;25.58;14.48;101489.47;6186369;23;19915;-48
2023/05/29 10:58:07;;;;;;;;;;;;;;;25.93;14.41;101489.88;6159488;23;19909;-52
2023/05/29 11:00:33;;;;;;;;;;;;;;;26.14;14.16;101488.00;6186568;23;19915;-50
2023/05/29 11:03:04;;;;;;;;;;;;;;;26.29;14.16;101482.50;6185413;23;19916;-50
2023/05/29 11:05:29;;;;;;;;;;;;;;;26.59;14.18;101478.09;6186382;23;19963;-49
2023/05/29 11:07:59;;;;;;;;;;;;;;;26.90;13.95;101481.66;6159859;23;19908;-54
2023/05/29 11:10:44;;;;;;;;;;;;;;;26.80;14.09;101479.75;6186415;23;19912;-48
2023/05/29 11:13:10;;;;;;;;;;;;;;;26.49;14.13;101478.13;6159456;23;20213;-51
2023/05/29 11:15:36;;;;;;;;;;;;;;;26.19;14.16;101482.50;6159457;23;19923;-49
2023/05/29 11:18:11;;;;;;;;;;;;;;;25.52;14.30;101476.81;6186432;23;19914;-49
2023/05/29 11:20:43;;;;;;;;;;;;;;;25.35;14.52;101481.69;6186038;23;19908;-49
2023/05/29 11:23:16;;;;;;;;;;;;;;;25.49;15.05;101466.34;6185761;23;19916;-48
2023/05/29 11:25:43;;;;;;;;;;;;;;;25.29;14.95;101453.31;6158802;23;19939;-49
2023/05/29 11:28:10;;;;;;;;;;;;;;;25.67;14.88;101460.34;6185738;23;19934;-51
2023/05/29 11:30:42;;;;;;;;;;;;;;;25.74;14.95;101464.75;6158940;23;19915;-49
2023/05/29 11:33:08;;;;;;;;;;;;;;;25.58;14.99;101461.97;6159534;23;19913;-47
2023/05/29 11:35:34;;;;;;;;;;;;;;;25.53;14.84;101467.44;6185719;23;19915;-49
2023/05/29 11:38:00;;;;;;;;;;;;;;;25.72;15.11;101456.78;6186196;23;20218;-47
2023/05/29 11:40:26;;;;;;;;;;;;;;;25.43;14.90;101456.44;6185815;23;19940;-48
2023/05/29 11:42:51;;;;;;;;;;;;;;;24.76;15.37;101450.56;6186048;23;19908;-47
2023/05/29 11:45:19;;;;;;;;;;;;;;;24.58;15.50;101448.22;6185840;23;20394;-49
2023/05/29 11:47:50;;;;;;;;;;;;;;;24.59;15.59;101449.88;6159215;23;19909;-48
2023/05/29 11:50:20;;;;;;;;;;;;;;;24.53;15.58;101446.25;6185687;23;19908;-47
2023/05/29 11:52:46;;;;;;;;;;;;;;;24.58;15.29;101440.81;6185760;23;19913;-50
2023/05/29 11:55:11;;;;;;;;;;;;;;;25.02;15.29;101435.03;6185698;23;19955;-47
2023/05/29 11:57:36;;;;;;;;;;;;;;;25.32;15.23;101432.75;6185332;23;19912;-47
2023/05/29 12:00:09;;;;;;;;;;;;;;;25.32;14.97;101417.06;6185372;23;19908;-48
2023/05/29 12:02:38;;;;;;;;;;;;;;;25.73;14.92;101424.59;6157885;23;19958;-52
2023/05/29 12:05:07;;;;;;;;;;;;;;;25.61;14.61;101419.31;6185393;23;19912;-50
2023/05/29 12:07:33;;;;;;;;;;;;;;;25.61;14.56;101411.06;6185279;23;19908;-50
2023/05/29 12:10:09;;;;;;;;;;;;;;;25.67;14.66;101410.00;6185463;23;19919;-49
2023/05/29 12:12:35;;;;;;;;;;;;;;;26.11;14.59;101408.69;6185334;23;19924;-50
2023/05/29 12:15:04;;;;;;;;;;;;;;;26.54;14.63;101401.78;6185328;23;19908;-47
2023/05/29 12:17:33;;;;;;;;;;;;;;;26.81;14.33;101406.16;6185691;23;19983;-47
2023/05/29 12:19:58;;;;;;;;;;;;;;;26.80;14.71;101405.34;6185421;23;19943;-46
2023/05/29 12:22:34;;;;;;;;;;;;;;;26.99;14.44;101407.50;6185316;23;19912;-46
2023/05/29 12:25:14;;;;;;;;;;;;;;;27.15;14.49;101398.03;6185660;23;19974;-46
2023/05/29 12:27:46;;;;;;;;;;;;;;;27.45;14.22;101398.19;6185507;23;19962;-46
2023/05/29 12:30:15;;;;;;;;;;;;;;;27.11;14.05;101398.88;6185512;23;19959;-49
2023/05/29 12:32:44;;;;;;;;;;;;;;;27.30;14.09;101402.66;6185285;23;19916;-53